sensor_id;sensor_type;location;lat;lon;timestamp;P1;durP1;ratioP1;P2;durP2;ratioP2
26820;SDS011;37186;51.394;5.454;2022-07-21T00:00:27;446.23;;;421.33;;
26820;SDS011;37186;51.394;5.454;2022-07-21T00:03:28;448.17;;;423.42;;
26820;SDS011;37186;51.394;5.454;2022-07-21T00:06:28;432.75;;;409.15;;
26820;SDS011;37186;51.394;5.454;2022-07-21T00:09:29;424.88;;;401.88;;
26820;SDS011;37186;51.394;5.454;2022-07-21T00:12:30;443.50;;;419.27;;
26820;SDS011;37186;51.394;5.454;2022-07-21T00:15:30;432.10;;;408.35;;
26820;SDS011;37186;51.394;5.454;2022-07-21T00:18:31;427.23;;;403.77;;
26820;SDS011;37186;51.394;5.454;2022-07-21T00:21:32;427.77;;;404.23;;
26820;SDS011;37186;51.394;5.454;2022-07-21T00:24:32;424.05;;;400.83;;
26820;SDS011;37186;51.394;5.454;2022-07-21T00:27:33;434.05;;;409.92;;
26820;SDS011;37186;51.394;5.454;2022-07-21T00:30:34;420.38;;;397.27;;
26820;SDS011;37186;51.394;5.454;2022-07-21T00:33:35;419.17;;;396.10;;
26820;SDS011;37186;51.394;5.454;2022-07-21T00:36:35;399.80;;;378.00;;
26820;SDS011;37186;51.394;5.454;2022-07-21T00:39:36;411.33;;;388.75;;
26820;SDS011;37186;51.394;5.454;2022-07-21T00:42:37;400.73;;;378.92;;
26820;SDS011;37186;51.394;5.454;2022-07-21T00:45:37;407.85;;;385.33;;
26820;SDS011;37186;51.394;5.454;2022-07-21T00:48:38;390.52;;;369.02;;
26820;SDS011;37186;51.394;5.454;2022-07-21T00:51:38;405.00;;;382.67;;
26820;SDS011;37186;51.394;5.454;2022-07-21T00:54:39;400.55;;;378.58;;
26820;SDS011;37186;51.394;5.454;2022-07-21T00:57:40;403.95;;;381.92;;
26820;SDS011;37186;51.394;5.454;2022-07-21T01:00:40;391.48;;;370.40;;
26820;SDS011;37186;51.394;5.454;2022-07-21T01:03:41;385.58;;;364.42;;
26820;SDS011;37186;51.394;5.454;2022-07-21T01:06:42;382.20;;;361.15;;
26820;SDS011;37186;51.394;5.454;2022-07-21T01:09:42;374.55;;;354.00;;
26820;SDS011;37186;51.394;5.454;2022-07-21T01:12:43;378.05;;;357.50;;
26820;SDS011;37186;51.394;5.454;2022-07-21T01:15:45;389.55;;;368.08;;
26820;SDS011;37186;51.394;5.454;2022-07-21T01:18:45;359.65;;;340.08;;
26820;SDS011;37186;51.394;5.454;2022-07-21T01:21:47;366.00;;;346.20;;
26820;SDS011;37186;51.394;5.454;2022-07-21T01:24:50;362.10;;;342.85;;
26820;SDS011;37186;51.394;5.454;2022-07-21T01:27:50;378.70;;;358.75;;
26820;SDS011;37186;51.394;5.454;2022-07-21T01:30:51;383.45;;;362.98;;
26820;SDS011;37186;51.394;5.454;2022-07-21T01:33:52;341.08;;;323.13;;
26820;SDS011;37186;51.394;5.454;2022-07-21T01:36:52;359.02;;;339.92;;
26820;SDS011;37186;51.394;5.454;2022-07-21T01:39:52;350.58;;;332.15;;
26820;SDS011;37186;51.394;5.454;2022-07-21T01:43:12;361.35;;;342.15;;
26820;SDS011;37186;51.394;5.454;2022-07-21T01:46:12;348.75;;;330.50;;
26820;SDS011;37186;51.394;5.454;2022-07-21T01:49:14;329.15;;;311.92;;
26820;SDS011;37186;51.394;5.454;2022-07-21T01:52:15;320.13;;;303.42;;
26820;SDS011;37186;51.394;5.454;2022-07-21T01:55:16;333.10;;;315.40;;
26820;SDS011;37186;51.394;5.454;2022-07-21T01:58:16;347.42;;;329.17;;
26820;SDS011;37186;51.394;5.454;2022-07-21T02:01:17;351.98;;;333.38;;
26820;SDS011;37186;51.394;5.454;2022-07-21T02:04:19;335.85;;;318.27;;
26820;SDS011;37186;51.394;5.454;2022-07-21T02:07:20;323.90;;;307.02;;
26820;SDS011;37186;51.394;5.454;2022-07-21T02:10:20;323.17;;;306.42;;
26820;SDS011;37186;51.394;5.454;2022-07-21T02:13:21;309.27;;;293.35;;
26820;SDS011;37186;51.394;5.454;2022-07-21T02:16:22;306.08;;;290.08;;
26820;SDS011;37186;51.394;5.454;2022-07-21T02:19:22;319.17;;;302.90;;
26820;SDS011;37186;51.394;5.454;2022-07-21T02:22:23;303.88;;;288.38;;
26820;SDS011;37186;51.394;5.454;2022-07-21T02:25:23;302.45;;;287.15;;
26820;SDS011;37186;51.394;5.454;2022-07-21T02:28:24;310.00;;;294.27;;
26820;SDS011;37186;51.394;5.454;2022-07-21T02:31:24;301.60;;;285.90;;
26820;SDS011;37186;51.394;5.454;2022-07-21T02:34:25;299.38;;;283.83;;
26820;SDS011;37186;51.394;5.454;2022-07-21T02:37:27;297.85;;;282.33;;
26820;SDS011;37186;51.394;5.454;2022-07-21T02:40:28;268.95;;;254.95;;
26820;SDS011;37186;51.394;5.454;2022-07-21T02:43:28;280.02;;;265.40;;
26820;SDS011;37186;51.394;5.454;2022-07-21T02:46:29;287.42;;;272.58;;
26820;SDS011;37186;51.394;5.454;2022-07-21T02:49:29;282.42;;;267.63;;
26820;SDS011;37186;51.394;5.454;2022-07-21T02:52:30;279.23;;;264.55;;
26820;SDS011;37186;51.394;5.454;2022-07-21T02:55:30;281.95;;;267.30;;
26820;SDS011;37186;51.394;5.454;2022-07-21T02:58:31;277.27;;;262.88;;
26820;SDS011;37186;51.394;5.454;2022-07-21T03:01:31;283.90;;;269.02;;
26820;SDS011;37186;51.394;5.454;2022-07-21T03:04:32;281.05;;;266.45;;
26820;SDS011;37186;51.394;5.454;2022-07-21T03:07:32;269.33;;;255.35;;
26820;SDS011;37186;51.394;5.454;2022-07-21T03:10:33;268.65;;;254.80;;
26820;SDS011;37186;51.394;5.454;2022-07-21T03:13:34;266.73;;;252.93;;
26820;SDS011;37186;51.394;5.454;2022-07-21T03:16:35;247.35;;;234.68;;
26820;SDS011;37186;51.394;5.454;2022-07-21T03:19:35;244.52;;;232.15;;
26820;SDS011;37186;51.394;5.454;2022-07-21T03:22:36;263.30;;;250.07;;
26820;SDS011;37186;51.394;5.454;2022-07-21T03:25:36;245.82;;;233.77;;
26820;SDS011;37186;51.394;5.454;2022-07-21T03:28:37;252.15;;;239.98;;
26820;SDS011;37186;51.394;5.454;2022-07-21T03:31:38;244.32;;;232.80;;
26820;SDS011;37186;51.394;5.454;2022-07-21T03:34:38;235.82;;;224.75;;
26820;SDS011;37186;51.394;5.454;2022-07-21T03:37:46;234.82;;;223.77;;
26820;SDS011;37186;51.394;5.454;2022-07-21T03:40:51;251.48;;;239.50;;
26820;SDS011;37186;51.394;5.454;2022-07-21T03:43:52;235.50;;;224.35;;
26820;SDS011;37186;51.394;5.454;2022-07-21T03:46:52;241.82;;;230.32;;
26820;SDS011;37186;51.394;5.454;2022-07-21T03:49:53;226.63;;;216.02;;
26820;SDS011;37186;51.394;5.454;2022-07-21T03:52:53;241.15;;;229.82;;
26820;SDS011;37186;51.394;5.454;2022-07-21T03:55:54;239.07;;;227.65;;
26820;SDS011;37186;51.394;5.454;2022-07-21T03:58:54;239.63;;;228.30;;
26820;SDS011;37186;51.394;5.454;2022-07-21T04:01:55;237.85;;;226.63;;
26820;SDS011;37186;51.394;5.454;2022-07-21T04:04:55;242.70;;;231.05;;
26820;SDS011;37186;51.394;5.454;2022-07-21T04:07:56;229.32;;;218.63;;
26820;SDS011;37186;51.394;5.454;2022-07-21T04:10:57;228.35;;;217.63;;
26820;SDS011;37186;51.394;5.454;2022-07-21T04:13:58;231.02;;;220.10;;
26820;SDS011;37186;51.394;5.454;2022-07-21T04:16:59;235.63;;;224.38;;
26820;SDS011;37186;51.394;5.454;2022-07-21T04:19:59;238.27;;;226.90;;
26820;SDS011;37186;51.394;5.454;2022-07-21T04:23:00;228.50;;;217.45;;
26820;SDS011;37186;51.394;5.454;2022-07-21T04:26:01;234.82;;;223.63;;
26820;SDS011;37186;51.394;5.454;2022-07-21T04:29:01;219.65;;;209.10;;
26820;SDS011;37186;51.394;5.454;2022-07-21T04:32:02;227.70;;;216.73;;
26820;SDS011;37186;51.394;5.454;2022-07-21T04:35:04;210.55;;;200.48;;
26820;SDS011;37186;51.394;5.454;2022-07-21T04:38:05;223.23;;;212.52;;
26820;SDS011;37186;51.394;5.454;2022-07-21T04:41:08;213.70;;;203.40;;
26820;SDS011;37186;51.394;5.454;2022-07-21T04:44:08;221.77;;;211.15;;
26820;SDS011;37186;51.394;5.454;2022-07-21T04:47:09;224.07;;;213.43;;
26820;SDS011;37186;51.394;5.454;2022-07-21T04:50:10;226.00;;;215.15;;
26820;SDS011;37186;51.394;5.454;2022-07-21T04:53:10;220.00;;;209.65;;
26820;SDS011;37186;51.394;5.454;2022-07-21T04:56:11;217.57;;;207.40;;
26820;SDS011;37186;51.394;5.454;2022-07-21T04:59:12;233.95;;;223.05;;
26820;SDS011;37186;51.394;5.454;2022-07-21T05:02:12;232.43;;;221.45;;
26820;SDS011;37186;51.394;5.454;2022-07-21T05:05:13;219.60;;;209.48;;
26820;SDS011;37186;51.394;5.454;2022-07-21T05:08:14;243.80;;;232.73;;
26820;SDS011;37186;51.394;5.454;2022-07-21T05:11:14;227.70;;;217.20;;
26820;SDS011;37186;51.394;5.454;2022-07-21T05:14:15;231.10;;;220.55;;
26820;SDS011;37186;51.394;5.454;2022-07-21T05:17:15;238.20;;;227.38;;
26820;SDS011;37186;51.394;5.454;2022-07-21T05:20:16;228.27;;;217.85;;
26820;SDS011;37186;51.394;5.454;2022-07-21T05:23:16;228.00;;;217.50;;
26820;SDS011;37186;51.394;5.454;2022-07-21T05:26:17;227.85;;;217.57;;
26820;SDS011;37186;51.394;5.454;2022-07-21T05:29:18;235.88;;;224.98;;
26820;SDS011;37186;51.394;5.454;2022-07-21T05:32:18;242.07;;;230.93;;
26820;SDS011;37186;51.394;5.454;2022-07-21T05:35:19;232.80;;;222.15;;
26820;SDS011;37186;51.394;5.454;2022-07-21T05:38:19;235.57;;;224.75;;
26820;SDS011;37186;51.394;5.454;2022-07-21T05:41:20;235.65;;;224.93;;
26820;SDS011;37186;51.394;5.454;2022-07-21T05:44:21;243.45;;;232.43;;
26820;SDS011;37186;51.394;5.454;2022-07-21T05:47:21;224.00;;;213.85;;
26820;SDS011;37186;51.394;5.454;2022-07-21T05:50:22;246.93;;;235.45;;
26820;SDS011;37186;51.394;5.454;2022-07-21T05:53:22;243.15;;;231.80;;
26820;SDS011;37186;51.394;5.454;2022-07-21T05:56:23;223.55;;;213.45;;
26820;SDS011;37186;51.394;5.454;2022-07-21T05:59:24;218.80;;;208.98;;
26820;SDS011;37186;51.394;5.454;2022-07-21T06:02:25;235.90;;;225.13;;
26820;SDS011;37186;51.394;5.454;2022-07-21T06:05:29;212.88;;;203.05;;
26820;SDS011;37186;51.394;5.454;2022-07-21T06:08:29;225.98;;;215.52;;
26820;SDS011;37186;51.394;5.454;2022-07-21T06:11:30;217.50;;;207.30;;
26820;SDS011;37186;51.394;5.454;2022-07-21T06:14:31;235.55;;;224.63;;
26820;SDS011;37186;51.394;5.454;2022-07-21T06:17:37;216.57;;;206.50;;
26820;SDS011;37186;51.394;5.454;2022-07-21T06:20:39;227.23;;;216.85;;
26820;SDS011;37186;51.394;5.454;2022-07-21T06:23:40;231.10;;;220.35;;
26820;SDS011;37186;51.394;5.454;2022-07-21T06:26:40;235.43;;;224.32;;
26820;SDS011;37186;51.394;5.454;2022-07-21T06:29:41;205.77;;;196.35;;
26820;SDS011;37186;51.394;5.454;2022-07-21T06:32:42;217.25;;;207.48;;
26820;SDS011;37186;51.394;5.454;2022-07-21T06:35:42;234.35;;;223.50;;
26820;SDS011;37186;51.394;5.454;2022-07-21T06:38:43;234.60;;;223.90;;
26820;SDS011;37186;51.394;5.454;2022-07-21T06:41:44;231.40;;;220.93;;
26820;SDS011;37186;51.394;5.454;2022-07-21T06:44:45;230.68;;;220.07;;
26820;SDS011;37186;51.394;5.454;2022-07-21T06:47:45;243.38;;;232.32;;
26820;SDS011;37186;51.394;5.454;2022-07-21T06:50:46;240.82;;;229.70;;
26820;SDS011;37186;51.394;5.454;2022-07-21T06:53:47;258.13;;;246.35;;
26820;SDS011;37186;51.394;5.454;2022-07-21T06:56:47;242.90;;;232.10;;
26820;SDS011;37186;51.394;5.454;2022-07-21T06:59:48;237.88;;;226.93;;
26820;SDS011;37186;51.394;5.454;2022-07-21T07:02:48;246.05;;;235.02;;
26820;SDS011;37186;51.394;5.454;2022-07-21T07:05:49;242.70;;;231.93;;
26820;SDS011;37186;51.394;5.454;2022-07-21T07:08:50;248.00;;;236.70;;
26820;SDS011;37186;51.394;5.454;2022-07-21T07:11:51;260.98;;;249.10;;
26820;SDS011;37186;51.394;5.454;2022-07-21T07:14:52;251.38;;;240.05;;
26820;SDS011;37186;51.394;5.454;2022-07-21T07:17:53;262.13;;;250.45;;
26820;SDS011;37186;51.394;5.454;2022-07-21T07:20:54;254.98;;;243.30;;
26820;SDS011;37186;51.394;5.454;2022-07-21T07:23:54;259.40;;;247.43;;
26820;SDS011;37186;51.394;5.454;2022-07-21T07:26:55;261.40;;;249.63;;
26820;SDS011;37186;51.394;5.454;2022-07-21T07:29:56;265.52;;;253.32;;
26820;SDS011;37186;51.394;5.454;2022-07-21T07:32:57;250.85;;;239.60;;
26820;SDS011;37186;51.394;5.454;2022-07-21T07:35:57;238.77;;;228.13;;
26820;SDS011;37186;51.394;5.454;2022-07-21T07:38:58;245.65;;;234.68;;
26820;SDS011;37186;51.394;5.454;2022-07-21T07:41:59;271.13;;;258.75;;
26820;SDS011;37186;51.394;5.454;2022-07-21T07:45:00;249.35;;;238.25;;
26820;SDS011;37186;51.394;5.454;2022-07-21T07:48:00;259.58;;;247.90;;
26820;SDS011;37186;51.394;5.454;2022-07-21T07:51:01;259.23;;;247.55;;
26820;SDS011;37186;51.394;5.454;2022-07-21T07:54:01;260.75;;;249.02;;
26820;SDS011;37186;51.394;5.454;2022-07-21T07:57:03;255.07;;;242.73;;
26820;SDS011;37186;51.394;5.454;2022-07-21T08:00:04;272.45;;;260.13;;
26820;SDS011;37186;51.394;5.454;2022-07-21T08:03:08;246.13;;;234.90;;
26820;SDS011;37186;51.394;5.454;2022-07-21T08:06:08;222.90;;;213.15;;
26820;SDS011;37186;51.394;5.454;2022-07-21T08:09:09;224.65;;;214.80;;
26820;SDS011;37186;51.394;5.454;2022-07-21T08:12:10;230.85;;;220.60;;
26820;SDS011;37186;51.394;5.454;2022-07-21T08:15:11;212.75;;;203.30;;
26820;SDS011;37186;51.394;5.454;2022-07-21T08:18:11;209.27;;;199.63;;
26820;SDS011;37186;51.394;5.454;2022-07-21T08:21:12;197.95;;;188.95;;
26820;SDS011;37186;51.394;5.454;2022-07-21T08:24:13;193.13;;;184.27;;
26820;SDS011;37186;51.394;5.454;2022-07-21T08:27:13;194.55;;;185.73;;
26820;SDS011;37186;51.394;5.454;2022-07-21T08:30:14;198.93;;;189.60;;
26820;SDS011;37186;51.394;5.454;2022-07-21T08:33:15;174.60;;;166.30;;
26820;SDS011;37186;51.394;5.454;2022-07-21T08:36:15;168.70;;;160.35;;
26820;SDS011;37186;51.394;5.454;2022-07-21T08:39:16;175.38;;;166.68;;
26820;SDS011;37186;51.394;5.454;2022-07-21T08:42:16;173.68;;;165.07;;
26820;SDS011;37186;51.394;5.454;2022-07-21T08:45:17;162.18;;;154.02;;
26820;SDS011;37186;51.394;5.454;2022-07-21T08:48:20;211.68;;;200.60;;
26820;SDS011;37186;51.394;5.454;2022-07-21T08:51:24;184.63;;;174.68;;
26820;SDS011;37186;51.394;5.454;2022-07-21T08:54:25;189.10;;;179.50;;
26820;SDS011;37186;51.394;5.454;2022-07-21T08:57:25;214.25;;;203.55;;
26820;SDS011;37186;51.394;5.454;2022-07-21T09:00:26;210.63;;;200.07;;
26820;SDS011;37186;51.394;5.454;2022-07-21T09:03:27;201.77;;;191.80;;
26820;SDS011;37186;51.394;5.454;2022-07-21T09:06:29;207.98;;;197.73;;
26820;SDS011;37186;51.394;5.454;2022-07-21T09:09:30;226.88;;;215.77;;
26820;SDS011;37186;51.394;5.454;2022-07-21T09:12:32;236.18;;;223.95;;
26820;SDS011;37186;51.394;5.454;2022-07-21T09:15:51;190.15;;;180.25;;
26820;SDS011;37186;51.394;5.454;2022-07-21T09:18:52;193.70;;;183.68;;
26820;SDS011;37186;51.394;5.454;2022-07-21T09:21:56;205.38;;;194.85;;
26820;SDS011;37186;51.394;5.454;2022-07-21T09:24:58;197.05;;;186.90;;
26820;SDS011;37186;51.394;5.454;2022-07-21T09:28:07;205.07;;;194.60;;
26820;SDS011;37186;51.394;5.454;2022-07-21T09:31:11;211.93;;;201.23;;
26820;SDS011;37186;51.394;5.454;2022-07-21T09:34:14;209.68;;;199.23;;
26820;SDS011;37186;51.394;5.454;2022-07-21T09:37:15;200.27;;;190.32;;
26820;SDS011;37186;51.394;5.454;2022-07-21T09:40:16;212.55;;;201.73;;
26820;SDS011;37186;51.394;5.454;2022-07-21T09:46:51;222.45;;;210.98;;
26820;SDS011;37186;51.394;5.454;2022-07-21T09:50:13;206.55;;;195.77;;
26820;SDS011;37186;51.394;5.454;2022-07-21T09:53:15;196.25;;;185.90;;
26820;SDS011;37186;51.394;5.454;2022-07-21T09:56:16;187.82;;;178.82;;
26820;SDS011;37186;51.394;5.454;2022-07-21T09:59:17;196.48;;;186.77;;
26820;SDS011;37186;51.394;5.454;2022-07-21T10:02:20;181.85;;;173.02;;
26820;SDS011;37186;51.394;5.454;2022-07-21T10:05:31;195.90;;;186.48;;
26820;SDS011;37186;51.394;5.454;2022-07-21T10:08:32;159.57;;;152.00;;
26820;SDS011;37186;51.394;5.454;2022-07-21T10:11:34;188.73;;;180.15;;
26820;SDS011;37186;51.394;5.454;2022-07-21T10:14:35;174.18;;;166.07;;
26820;SDS011;37186;51.394;5.454;2022-07-21T10:17:37;172.55;;;164.38;;
26820;SDS011;37186;51.394;5.454;2022-07-21T10:20:39;169.43;;;161.40;;
26820;SDS011;37186;51.394;5.454;2022-07-21T10:23:44;179.35;;;171.05;;
26820;SDS011;37186;51.394;5.454;2022-07-21T10:30:46;167.48;;;159.50;;
26820;SDS011;37186;51.394;5.454;2022-07-21T10:36:47;170.20;;;162.57;;
26820;SDS011;37186;51.394;5.454;2022-07-21T10:39:48;176.52;;;168.50;;
26820;SDS011;37186;51.394;5.454;2022-07-21T10:46:01;178.02;;;169.95;;
26820;SDS011;37186;51.394;5.454;2022-07-21T10:49:02;155.35;;;148.18;;
26820;SDS011;37186;51.394;5.454;2022-07-21T10:52:05;168.82;;;161.18;;
26820;SDS011;37186;51.394;5.454;2022-07-21T10:55:27;154.57;;;147.50;;
26820;SDS011;37186;51.394;5.454;2022-07-21T10:58:31;157.85;;;150.55;;
26820;SDS011;37186;51.394;5.454;2022-07-21T11:01:38;162.20;;;154.75;;
26820;SDS011;37186;51.394;5.454;2022-07-21T11:11:13;146.93;;;140.25;;
26820;SDS011;37186;51.394;5.454;2022-07-21T11:14:15;159.15;;;151.90;;
26820;SDS011;37186;51.394;5.454;2022-07-21T11:17:24;154.98;;;147.95;;
26820;SDS011;37186;51.394;5.454;2022-07-21T11:20:28;180.40;;;172.75;;
26820;SDS011;37186;51.394;5.454;2022-07-21T11:23:48;179.88;;;172.10;;
26820;SDS011;37186;51.394;5.454;2022-07-21T11:26:59;182.18;;;174.57;;
26820;SDS011;37186;51.394;5.454;2022-07-21T11:30:08;220.07;;;210.40;;
26820;SDS011;37186;51.394;5.454;2022-07-21T11:33:09;246.15;;;235.40;;
26820;SDS011;37186;51.394;5.454;2022-07-21T11:36:23;241.07;;;230.80;;
26820;SDS011;37186;51.394;5.454;2022-07-21T11:39:26;202.95;;;194.23;;
26820;SDS011;37186;51.394;5.454;2022-07-21T11:42:27;242.63;;;232.13;;
26820;SDS011;37186;51.394;5.454;2022-07-21T11:45:30;204.75;;;195.80;;
26820;SDS011;37186;51.394;5.454;2022-07-21T11:48:31;200.45;;;191.55;;
26820;SDS011;37186;51.394;5.454;2022-07-21T11:51:32;215.85;;;206.23;;
26820;SDS011;37186;51.394;5.454;2022-07-21T11:54:37;207.90;;;198.23;;
26820;SDS011;37186;51.394;5.454;2022-07-21T11:57:43;152.80;;;145.82;;
26820;SDS011;37186;51.394;5.454;2022-07-21T12:00:44;171.93;;;164.23;;
26820;SDS011;37186;51.394;5.454;2022-07-21T12:03:47;218.43;;;208.73;;
26820;SDS011;37186;51.394;5.454;2022-07-21T12:06:49;165.52;;;157.88;;
26820;SDS011;37186;51.394;5.454;2022-07-21T12:09:51;143.23;;;136.57;;
26820;SDS011;37186;51.394;5.454;2022-07-21T12:13:00;167.40;;;159.77;;
26820;SDS011;37186;51.394;5.454;2022-07-21T12:16:03;176.13;;;168.32;;
26820;SDS011;37186;51.394;5.454;2022-07-21T12:19:10;168.02;;;160.32;;
26820;SDS011;37186;51.394;5.454;2022-07-21T12:22:12;149.93;;;143.15;;
26820;SDS011;37186;51.394;5.454;2022-07-21T12:25:13;158.82;;;151.75;;
26820;SDS011;37186;51.394;5.454;2022-07-21T12:28:15;149.45;;;142.68;;
26820;SDS011;37186;51.394;5.454;2022-07-21T12:31:17;157.57;;;150.57;;
26820;SDS011;37186;51.394;5.454;2022-07-21T12:34:23;180.75;;;172.50;;
26820;SDS011;37186;51.394;5.454;2022-07-21T12:37:50;166.27;;;158.77;;
26820;SDS011;37186;51.394;5.454;2022-07-21T12:41:13;159.93;;;152.77;;
26820;SDS011;37186;51.394;5.454;2022-07-21T12:44:15;164.40;;;156.82;;
26820;SDS011;37186;51.394;5.454;2022-07-21T12:47:17;174.57;;;166.68;;
26820;SDS011;37186;51.394;5.454;2022-07-21T12:50:20;167.20;;;159.48;;
26820;SDS011;37186;51.394;5.454;2022-07-21T12:53:20;170.45;;;162.57;;
26820;SDS011;37186;51.394;5.454;2022-07-21T12:56:22;195.73;;;186.57;;
26820;SDS011;37186;51.394;5.454;2022-07-21T12:59:27;192.73;;;183.70;;
26820;SDS011;37186;51.394;5.454;2022-07-21T13:02:27;196.18;;;187.00;;
26820;SDS011;37186;51.394;5.454;2022-07-21T13:05:29;218.95;;;208.45;;
26820;SDS011;37186;51.394;5.454;2022-07-21T13:08:30;217.70;;;207.32;;
26820;SDS011;37186;51.394;5.454;2022-07-21T13:11:32;203.10;;;193.65;;
26820;SDS011;37186;51.394;5.454;2022-07-21T13:14:32;202.82;;;193.15;;
26820;SDS011;37186;51.394;5.454;2022-07-21T13:17:33;178.27;;;170.32;;
26820;SDS011;37186;51.394;5.454;2022-07-21T13:20:34;231.85;;;221.50;;
26820;SDS011;37186;51.394;5.454;2022-07-21T13:23:35;241.52;;;231.02;;
26820;SDS011;37186;51.394;5.454;2022-07-21T13:26:35;207.77;;;198.45;;
26820;SDS011;37186;51.394;5.454;2022-07-21T13:29:36;183.05;;;174.80;;
26820;SDS011;37186;51.394;5.454;2022-07-21T13:32:36;207.38;;;198.07;;
26820;SDS011;37186;51.394;5.454;2022-07-21T13:35:37;224.38;;;214.63;;
26820;SDS011;37186;51.394;5.454;2022-07-21T13:38:38;212.52;;;203.15;;
26820;SDS011;37186;51.394;5.454;2022-07-21T13:41:39;227.68;;;217.90;;
26820;SDS011;37186;51.394;5.454;2022-07-21T13:44:40;218.52;;;209.23;;
26820;SDS011;37186;51.394;5.454;2022-07-21T13:47:40;220.95;;;211.57;;
26820;SDS011;37186;51.394;5.454;2022-07-21T13:50:42;208.13;;;199.25;;
26820;SDS011;37186;51.394;5.454;2022-07-21T13:53:43;180.07;;;172.48;;
26820;SDS011;37186;51.394;5.454;2022-07-21T13:56:45;180.57;;;172.93;;
26820;SDS011;37186;51.394;5.454;2022-07-21T13:59:45;196.00;;;187.88;;
26820;SDS011;37186;51.394;5.454;2022-07-21T14:02:46;199.93;;;191.23;;
26820;SDS011;37186;51.394;5.454;2022-07-21T14:05:47;203.07;;;194.18;;
26820;SDS011;37186;51.394;5.454;2022-07-21T14:08:48;217.55;;;207.88;;
26820;SDS011;37186;51.394;5.454;2022-07-21T14:11:48;213.10;;;203.57;;
26820;SDS011;37186;51.394;5.454;2022-07-21T14:14:49;211.57;;;202.20;;
26820;SDS011;37186;51.394;5.454;2022-07-21T14:17:50;207.10;;;197.80;;
26820;SDS011;37186;51.394;5.454;2022-07-21T14:20:50;201.95;;;192.75;;
26820;SDS011;37186;51.394;5.454;2022-07-21T14:23:52;247.20;;;235.88;;
26820;SDS011;37186;51.394;5.454;2022-07-21T14:27:13;252.05;;;241.18;;
26820;SDS011;37186;51.394;5.454;2022-07-21T14:30:15;264.55;;;252.10;;
26820;SDS011;37186;51.394;5.454;2022-07-21T14:33:16;249.40;;;238.00;;
26820;SDS011;37186;51.394;5.454;2022-07-21T14:36:17;207.38;;;197.60;;
26820;SDS011;37186;51.394;5.454;2022-07-21T14:39:18;217.52;;;207.85;;
26820;SDS011;37186;51.394;5.454;2022-07-21T14:42:19;215.70;;;206.00;;
26820;SDS011;37186;51.394;5.454;2022-07-21T14:45:20;234.20;;;223.20;;
26820;SDS011;37186;51.394;5.454;2022-07-21T14:48:21;218.40;;;207.85;;
26820;SDS011;37186;51.394;5.454;2022-07-21T14:51:22;197.38;;;188.40;;
26820;SDS011;37186;51.394;5.454;2022-07-21T14:54:23;226.68;;;215.80;;
26820;SDS011;37186;51.394;5.454;2022-07-21T14:57:24;202.48;;;193.32;;
26820;SDS011;37186;51.394;5.454;2022-07-21T15:00:24;232.77;;;221.75;;
26820;SDS011;37186;51.394;5.454;2022-07-21T15:03:25;197.32;;;187.63;;
26820;SDS011;37186;51.394;5.454;2022-07-21T15:06:25;218.85;;;208.43;;
26820;SDS011;37186;51.394;5.454;2022-07-21T15:09:26;216.90;;;206.57;;
26820;SDS011;37186;51.394;5.454;2022-07-21T15:12:27;224.93;;;213.80;;
26820;SDS011;37186;51.394;5.454;2022-07-21T15:15:27;216.95;;;206.18;;
26820;SDS011;37186;51.394;5.454;2022-07-21T15:18:28;216.48;;;206.10;;
26820;SDS011;37186;51.394;5.454;2022-07-21T15:21:28;188.32;;;179.48;;
26820;SDS011;37186;51.394;5.454;2022-07-21T15:24:29;197.40;;;188.38;;
26820;SDS011;37186;51.394;5.454;2022-07-21T15:27:29;163.38;;;155.48;;
26820;SDS011;37186;51.394;5.454;2022-07-21T15:30:30;160.45;;;153.20;;
26820;SDS011;37186;51.394;5.454;2022-07-21T15:33:31;135.95;;;130.02;;
26820;SDS011;37186;51.394;5.454;2022-07-21T15:36:31;179.70;;;171.38;;
26820;SDS011;37186;51.394;5.454;2022-07-21T15:39:32;169.52;;;161.93;;
26820;SDS011;37186;51.394;5.454;2022-07-21T15:42:33;152.27;;;144.80;;
26820;SDS011;37186;51.394;5.454;2022-07-21T15:45:38;126.10;;;120.55;;
26820;SDS011;37186;51.394;5.454;2022-07-21T15:48:40;156.30;;;149.57;;
26820;SDS011;37186;51.394;5.454;2022-07-21T15:51:41;123.00;;;117.93;;
26820;SDS011;37186;51.394;5.454;2022-07-21T15:54:41;122.00;;;116.80;;
26820;SDS011;37186;51.394;5.454;2022-07-21T15:57:42;115.60;;;110.82;;
26820;SDS011;37186;51.394;5.454;2022-07-21T16:00:43;113.55;;;108.85;;
26820;SDS011;37186;51.394;5.454;2022-07-21T16:03:43;127.22;;;121.68;;
26820;SDS011;37186;51.394;5.454;2022-07-21T16:06:44;124.10;;;118.68;;
26820;SDS011;37186;51.394;5.454;2022-07-21T16:09:44;125.57;;;120.45;;
26820;SDS011;37186;51.394;5.454;2022-07-21T16:12:45;128.23;;;122.78;;
26820;SDS011;37186;51.394;5.454;2022-07-21T16:15:46;191.10;;;182.93;;
26820;SDS011;37186;51.394;5.454;2022-07-21T16:18:46;140.05;;;133.95;;
26820;SDS011;37186;51.394;5.454;2022-07-21T16:21:48;149.35;;;142.95;;
26820;SDS011;37186;51.394;5.454;2022-07-21T16:24:49;143.68;;;137.45;;
26820;SDS011;37186;51.394;5.454;2022-07-21T16:27:50;139.88;;;133.80;;
26820;SDS011;37186;51.394;5.454;2022-07-21T16:30:51;149.05;;;142.38;;
26820;SDS011;37186;51.394;5.454;2022-07-21T16:33:51;132.48;;;126.78;;
26820;SDS011;37186;51.394;5.454;2022-07-21T16:36:52;167.00;;;159.75;;
26820;SDS011;37186;51.394;5.454;2022-07-21T16:39:53;139.75;;;133.75;;
26820;SDS011;37186;51.394;5.454;2022-07-21T16:42:53;140.52;;;134.43;;
26820;SDS011;37186;51.394;5.454;2022-07-21T16:45:54;145.38;;;139.10;;
26820;SDS011;37186;51.394;5.454;2022-07-21T16:48:54;148.07;;;141.70;;
26820;SDS011;37186;51.394;5.454;2022-07-21T16:51:55;196.20;;;187.38;;
26820;SDS011;37186;51.394;5.454;2022-07-21T16:54:55;161.15;;;154.32;;
26820;SDS011;37186;51.394;5.454;2022-07-21T16:57:56;186.88;;;178.80;;
26820;SDS011;37186;51.394;5.454;2022-07-21T17:00:56;200.52;;;191.73;;
26820;SDS011;37186;51.394;5.454;2022-07-21T17:03:57;201.02;;;192.07;;
26820;SDS011;37186;51.394;5.454;2022-07-21T17:06:57;204.73;;;195.48;;
26820;SDS011;37186;51.394;5.454;2022-07-21T17:09:58;219.55;;;209.70;;
26820;SDS011;37186;51.394;5.454;2022-07-21T17:12:59;222.85;;;213.05;;
26820;SDS011;37186;51.394;5.454;2022-07-21T17:15:59;197.93;;;188.95;;
26820;SDS011;37186;51.394;5.454;2022-07-21T17:19:00;205.38;;;196.18;;
26820;SDS011;37186;51.394;5.454;2022-07-21T17:22:00;204.52;;;195.45;;
26820;SDS011;37186;51.394;5.454;2022-07-21T17:25:01;196.82;;;187.85;;
26820;SDS011;37186;51.394;5.454;2022-07-21T17:28:03;185.82;;;177.13;;
26820;SDS011;37186;51.394;5.454;2022-07-21T17:31:04;188.10;;;179.52;;